createdAt,value
2018-03-03T00:00:48.906Z,26.25
2018-03-03T00:03:30.385Z,25.20
2018-03-03T00:06:11.067Z,25.07
2018-03-03T00:08:51.708Z,25.70
2018-03-03T00:11:33.110Z,26.80
2018-03-03T00:14:13.954Z,26.40
2018-03-03T00:16:56.328Z,26.90
2018-03-03T00:19:37.116Z,26.20
2018-03-03T00:22:41.373Z,25.80
2018-03-03T00:25:22.822Z,26.47
2018-03-03T00:28:03.685Z,26.33
2018-03-03T00:30:45.031Z,26.87
2018-03-03T00:33:28.362Z,26.10
2018-03-03T00:36:09.261Z,25.27
2018-03-03T00:38:50.190Z,26.03
2018-03-03T00:41:31.724Z,26.07
2018-03-03T00:44:12.412Z,26.23
2018-03-03T00:46:53.148Z,27.33
2018-03-03T00:49:33.731Z,25.43
2018-03-03T00:52:15.231Z,26.57
2018-03-03T00:54:56.905Z,25.73
2018-03-03T00:57:38.581Z,27.53
2018-03-03T01:00:19.337Z,27.00
2018-03-03T01:03:01.669Z,26.27
2018-03-03T01:05:42.284Z,25.97
2018-03-03T01:08:22.852Z,26.47
2018-03-03T01:11:03.612Z,26.50
2018-03-03T01:13:44.152Z,26.10
2018-03-03T01:16:25.628Z,26.77
2018-03-03T01:19:06.337Z,25.97
2018-03-03T01:21:47.093Z,26.03
2018-03-03T01:24:28.530Z,27.20
2018-03-03T01:27:10.526Z,26.17
2018-03-03T01:29:51.141Z,26.37
2018-03-03T01:32:31.833Z,25.97
2018-03-03T01:35:12.505Z,26.83
2018-03-03T01:37:53.488Z,27.60
2018-03-03T01:40:34.062Z,27.73
2018-03-03T01:43:14.968Z,27.73
2018-03-03T01:45:55.558Z,25.80
2018-03-03T01:48:36.913Z,26.77
2018-03-03T01:51:29.566Z,25.73
2018-03-03T01:54:10.167Z,26.13
2018-03-03T01:56:50.900Z,26.70
2018-03-03T01:59:32.430Z,25.87
2018-03-03T02:02:14.507Z,26.63
2018-03-03T02:04:55.143Z,26.83
2018-03-03T02:07:36.498Z,27.27
2018-03-03T02:10:17.325Z,27.57
2018-03-03T02:12:58.099Z,27.33
2018-03-03T02:15:39.648Z,27.30
2018-03-03T02:18:20.251Z,27.37
2018-03-03T02:21:01.238Z,28.13
2018-03-03T02:23:41.891Z,27.37
2018-03-03T02:26:22.666Z,26.63
2018-03-03T02:29:03.420Z,26.97
2018-03-03T02:31:44.272Z,27.70
2018-03-03T02:34:24.922Z,27.93
2018-03-03T02:37:06.465Z,28.50
2018-03-03T02:39:47.023Z,28.03
2018-03-03T02:42:28.976Z,27.93
2018-03-03T02:45:09.686Z,27.70
2018-03-03T02:47:51.012Z,27.20
2018-03-03T02:50:32.537Z,27.93
2018-03-03T02:53:13.024Z,27.83
2018-03-03T02:55:53.587Z,29.07
2018-03-03T02:58:34.216Z,29.73
2018-03-03T03:01:14.932Z,27.93
2018-03-03T03:03:56.100Z,28.63
2018-03-03T03:06:37.739Z,29.57
2018-03-03T03:09:19.462Z,27.33
2018-03-03T03:12:00.992Z,29.03
2018-03-03T03:14:41.808Z,27.43
2018-03-03T03:17:23.115Z,26.97
2018-03-03T03:20:03.863Z,27.90
2018-03-03T03:35:22.600Z,27.17
2018-03-03T03:56:46.952Z,25.40
2018-03-03T03:59:45.948Z,26.60
2018-03-03T04:18:17.811Z,25.97
2018-03-03T04:33:50.672Z,25.17
2018-03-03T04:46:04.698Z,26.33
2018-03-03T04:48:45.297Z,24.87
2018-03-03T04:51:25.947Z,24.47
2018-03-03T04:54:07.431Z,25.57
2018-03-03T04:56:48.060Z,25.70
2018-03-03T04:59:34.835Z,25.57
2018-03-03T05:02:22.247Z,25.20
2018-03-03T05:08:15.402Z,25.60
2018-03-03T05:10:57.855Z,25.63
2018-03-03T05:13:42.166Z,25.43
2018-03-03T05:16:24.883Z,26.33
2018-03-03T05:22:38.124Z,25.90
2018-03-03T05:25:26.688Z,26.00
2018-03-03T05:28:28.426Z,26.33
2018-03-03T05:34:20.208Z,25.67
2018-03-03T05:37:06.795Z,25.23
2018-03-03T05:39:54.044Z,25.98
2018-03-03T05:46:07.142Z,24.47
2018-03-03T05:48:48.862Z,24.70
2018-03-03T05:51:35.497Z,25.70
2018-03-03T05:54:18.720Z,25.27
2018-03-03T05:57:10.974Z,24.80
2018-03-03T05:59:57.294Z,24.80
2018-03-03T06:02:55.826Z,24.87
2018-03-03T06:21:16.811Z,24.37
2018-03-03T06:23:57.379Z,25.27
2018-03-03T06:26:38.131Z,24.07
2018-03-03T06:29:18.889Z,24.83
2018-03-03T06:31:59.665Z,25.37
2018-03-03T06:34:40.743Z,25.10
2018-03-03T06:37:21.242Z,25.73
2018-03-03T06:40:02.614Z,25.13
2018-03-03T06:42:43.688Z,24.43
2018-03-03T06:45:25.212Z,24.47
2018-03-03T06:48:05.708Z,25.83
2018-03-03T06:50:46.445Z,23.90
2018-03-03T06:53:27.045Z,24.03
2018-03-03T06:56:07.930Z,24.40
2018-03-03T06:58:48.494Z,24.73
2018-03-03T07:01:30.349Z,22.33
2018-03-03T07:04:10.945Z,24.03
2018-03-03T07:06:51.352Z,22.53
2018-03-03T07:09:32.997Z,23.83
2018-03-03T07:12:13.756Z,23.47
2018-03-03T07:14:57.820Z,23.90
2018-03-03T07:17:38.446Z,22.77
2018-03-03T07:20:19.234Z,22.37
2018-03-03T07:23:00.064Z,22.83
2018-03-03T07:25:40.686Z,22.90
2018-03-03T07:28:21.420Z,22.80
2018-03-03T07:31:01.978Z,23.73
2018-03-03T07:33:43.695Z,22.43
2018-03-03T07:36:24.360Z,22.37
2018-03-03T07:39:05.679Z,22.90
2018-03-03T07:41:46.485Z,22.73
2018-03-03T07:44:27.074Z,21.80
2018-03-03T07:47:08.569Z,21.03
2018-03-03T07:49:49.020Z,23.00
2018-03-03T07:52:29.780Z,22.07
2018-03-03T07:55:11.243Z,22.40
2018-03-03T07:57:51.853Z,22.20
2018-03-03T08:00:32.640Z,22.10
2018-03-03T08:03:13.253Z,22.50
2018-03-03T08:05:55.075Z,22.23
2018-03-03T08:08:35.810Z,22.87
2018-03-03T08:11:17.444Z,22.50
2018-03-03T08:13:58.915Z,22.83
2018-03-03T08:16:39.528Z,22.33
2018-03-03T08:19:20.359Z,22.60
2018-03-03T08:22:03.060Z,23.43
2018-03-03T08:24:43.559Z,22.70
2018-03-03T08:27:24.948Z,21.23
2018-03-03T08:30:05.586Z,20.83
2018-03-03T08:32:46.179Z,21.53
2018-03-03T08:35:26.991Z,22.57
2018-03-03T08:38:08.350Z,22.57
2018-03-03T08:40:49.077Z,21.80
2018-03-03T08:43:29.715Z,21.23
2018-03-03T08:46:10.497Z,20.87
2018-03-03T08:48:51.311Z,22.50
2018-03-03T08:51:31.982Z,21.63
2018-03-03T08:54:12.811Z,22.30
2018-03-03T08:56:53.449Z,21.07
2018-03-03T08:59:34.350Z,22.40
2018-03-03T09:02:14.826Z,20.97
2018-03-03T09:04:55.343Z,21.67
2018-03-03T09:07:35.940Z,21.10
2018-03-03T09:10:16.662Z,21.67
2018-03-03T09:16:02.069Z,22.47
2018-03-03T09:18:43.365Z,21.03
2018-03-03T09:21:25.107Z,21.90
2018-03-03T09:24:05.731Z,21.77
2018-03-03T09:26:46.388Z,20.80
2018-03-03T09:29:27.466Z,21.35
2018-03-03T09:32:08.254Z,22.08
2018-03-03T09:34:48.984Z,21.40
2018-03-03T09:37:30.483Z,21.43
2018-03-03T09:40:12.300Z,21.47
2018-03-03T09:42:53.752Z,21.07
2018-03-03T09:45:34.324Z,21.17
2018-03-03T09:48:18.592Z,21.65
2018-03-03T09:50:59.262Z,22.33
2018-03-03T09:53:39.929Z,22.50
2018-03-03T09:56:21.369Z,22.23
2018-03-03T09:59:03.431Z,21.17
2018-03-03T10:01:44.901Z,22.62
2018-03-03T10:04:26.399Z,22.20
2018-03-03T10:07:07.065Z,22.43
2018-03-03T10:09:47.814Z,20.60
2018-03-03T10:12:28.627Z,22.80
2018-03-03T10:15:09.378Z,22.27
2018-03-03T10:23:59.910Z,20.23
2018-03-03T10:26:40.626Z,20.60
2018-03-03T10:29:21.463Z,21.70
2018-03-03T10:32:03.595Z,21.13
2018-03-03T10:34:44.183Z,20.58
2018-03-03T10:37:25.050Z,21.20
2018-03-03T10:40:05.668Z,20.60
2018-03-03T10:42:47.002Z,20.47
2018-03-03T10:45:29.371Z,20.30
2018-03-03T10:48:10.824Z,20.80
2018-03-03T10:50:51.486Z,20.88
2018-03-03T10:53:33.005Z,21.93
2018-03-03T10:56:13.853Z,20.63
2018-03-03T10:58:54.475Z,20.37
2018-03-03T11:01:35.770Z,21.47
2018-03-03T11:04:16.331Z,20.60
2018-03-03T11:06:56.976Z,21.33
2018-03-03T11:09:37.682Z,19.65
2018-03-03T11:12:18.528Z,20.12
2018-03-03T11:14:59.351Z,20.00
2018-03-03T11:17:40.758Z,20.33
2018-03-03T11:20:22.887Z,19.52
2018-03-03T11:23:03.584Z,20.35
2018-03-03T11:25:44.975Z,19.27
2018-03-03T11:28:25.687Z,18.93
2018-03-03T11:31:06.342Z,19.80
2018-03-03T11:33:47.897Z,18.50
2018-03-03T11:36:29.320Z,19.20
2018-03-03T11:39:10.426Z,18.90
2018-03-03T11:41:51.163Z,20.25
2018-03-03T11:44:32.557Z,19.27
2018-03-03T11:47:15.272Z,18.95
2018-03-03T11:49:56.121Z,19.17
2018-03-03T11:52:36.827Z,19.45
2018-03-03T11:55:17.615Z,19.12
2018-03-03T11:57:58.242Z,18.45
2018-03-03T12:00:38.954Z,18.00
2018-03-03T12:03:19.735Z,18.48
2018-03-03T12:06:00.412Z,18.40
2018-03-03T12:08:41.062Z,19.12
2018-03-03T12:11:21.941Z,17.30
2018-03-03T12:14:02.774Z,18.08
2018-03-03T12:16:44.404Z,17.62
2018-03-03T12:19:25.940Z,17.08
2018-03-03T12:22:07.597Z,16.00
2018-03-03T12:24:48.380Z,16.90
2018-03-03T12:27:28.977Z,16.15
2018-03-03T12:30:09.748Z,15.32
2018-03-03T12:32:50.545Z,14.55
2018-03-03T12:35:31.355Z,15.20
2018-03-03T12:38:11.989Z,15.60
2018-03-03T12:40:53.416Z,15.00
2018-03-03T12:43:34.255Z,14.50
2018-03-03T12:46:14.865Z,14.18
2018-03-03T12:48:55.613Z,13.23
2018-03-03T12:51:36.361Z,13.43
2018-03-03T12:54:17.014Z,15.02
2018-03-03T12:57:04.486Z,13.48
2018-03-03T12:59:45.307Z,13.48
2018-03-03T13:02:25.871Z,14.60
2018-03-03T13:05:06.555Z,13.52
2018-03-03T13:07:47.191Z,13.57
2018-03-03T13:10:27.976Z,12.80
2018-03-03T13:13:08.723Z,13.00
2018-03-03T13:15:49.517Z,13.18
2018-03-03T13:18:30.180Z,12.40
2018-03-03T13:21:10.997Z,12.27
2018-03-03T13:23:51.581Z,12.65
2018-03-03T13:26:32.325Z,12.05
2018-03-03T13:29:13.893Z,12.02
2018-03-03T13:31:54.570Z,11.90
2018-03-03T13:34:35.220Z,11.45
2018-03-03T13:37:16.626Z,11.90
2018-03-03T13:39:57.180Z,11.23
2018-03-03T13:42:37.976Z,11.45
2018-03-03T13:45:18.691Z,10.95
2018-03-03T13:47:59.333Z,11.32
2018-03-03T13:50:40.804Z,11.43
2018-03-03T13:53:21.164Z,10.98
2018-03-03T13:56:02.547Z,10.45
2018-03-03T13:58:43.190Z,11.18
2018-03-03T14:01:24.792Z,10.52
2018-03-03T14:04:06.183Z,10.77
2018-03-03T14:06:46.954Z,10.55
2018-03-03T14:09:29.461Z,10.55
2018-03-03T14:12:10.327Z,10.55
2018-03-03T14:14:52.019Z,10.50
2018-03-03T14:17:32.757Z,10.52
2018-03-03T14:20:15.828Z,9.98
2018-03-03T14:22:56.687Z,10.27
2018-03-03T14:25:37.360Z,9.27
2018-03-03T14:28:18.030Z,9.38
2018-03-03T14:30:59.303Z,9.70
2018-03-03T14:33:39.976Z,9.93
2018-03-03T14:36:20.687Z,8.80
2018-03-03T14:39:01.385Z,9.50
2018-03-03T14:41:42.264Z,9.23
2018-03-03T14:44:22.923Z,8.95
2018-03-03T14:47:03.634Z,9.10
2018-03-03T14:49:44.308Z,8.57
2018-03-03T14:52:24.969Z,9.02
2018-03-03T14:55:05.727Z,9.05
2018-03-03T14:57:46.500Z,8.35
2018-03-03T15:00:27.223Z,9.45
2018-03-03T15:03:07.827Z,8.70
2018-03-03T15:05:48.500Z,8.20
2018-03-03T15:08:29.071Z,8.43
2018-03-03T15:11:10.048Z,8.48
2018-03-03T15:13:50.710Z,8.40
2018-03-03T15:16:31.533Z,8.65
2018-03-03T15:19:12.124Z,8.48
2018-03-03T15:21:53.562Z,7.90
2018-03-03T15:24:35.152Z,7.90
2018-03-03T15:27:16.462Z,7.93
2018-03-03T15:29:57.297Z,8.13
2018-03-03T15:32:40.454Z,6.97
2018-03-03T15:35:21.079Z,7.45
2018-03-03T15:38:01.757Z,8.00
2018-03-03T15:40:42.382Z,7.20
2018-03-03T15:43:23.588Z,7.45
2018-03-03T15:46:04.101Z,7.57
2018-03-03T15:48:44.679Z,7.82
2018-03-03T15:51:25.472Z,7.78
2018-03-03T15:54:06.029Z,7.35
2018-03-03T15:56:46.786Z,7.47
2018-03-03T15:59:28.406Z,7.20
2018-03-03T16:02:09.741Z,7.40
2018-03-03T16:04:50.977Z,6.95
2018-03-03T16:07:32.218Z,6.47
2018-03-03T16:10:12.963Z,7.12
2018-03-03T16:12:53.574Z,7.50
2018-03-03T16:15:35.463Z,7.25
2018-03-03T16:18:15.972Z,6.90
2018-03-03T16:20:56.777Z,6.62
2018-03-03T16:23:37.598Z,6.62
2018-03-03T16:26:18.339Z,7.32
2018-03-03T16:28:58.892Z,6.60
2018-03-03T16:31:41.457Z,6.82
2018-03-03T16:34:21.966Z,6.73
2018-03-03T16:37:02.903Z,6.72
2018-03-03T16:39:43.546Z,6.37
2018-03-03T16:42:24.669Z,6.55
2018-03-03T16:45:05.455Z,6.62
2018-03-03T16:47:47.016Z,6.47
2018-03-03T16:50:28.539Z,6.90
2018-03-03T16:53:09.158Z,6.77
2018-03-03T16:55:50.648Z,6.22
2018-03-03T16:58:32.608Z,6.47
2018-03-03T17:01:13.126Z,6.22
2018-03-03T17:03:53.877Z,5.80
2018-03-03T17:06:34.561Z,5.57
2018-03-03T17:09:15.478Z,5.57
2018-03-03T17:11:55.964Z,6.05
2018-03-03T17:14:36.938Z,5.47
2018-03-03T17:17:18.151Z,5.93
2018-03-03T17:19:58.797Z,5.93
2018-03-03T17:22:39.604Z,5.75
2018-03-03T17:25:20.280Z,5.05
2018-03-03T17:28:01.094Z,5.43
2018-03-03T17:30:42.368Z,5.80
2018-03-03T17:33:22.916Z,5.32
2018-03-03T17:36:04.439Z,5.28
2018-03-03T17:38:46.414Z,5.55
2018-03-03T17:41:27.949Z,5.30
2018-03-03T17:44:08.926Z,5.68
2018-03-03T17:46:49.484Z,5.15
2018-03-03T17:49:30.158Z,5.43
2018-03-03T17:52:10.911Z,5.73
2018-03-03T17:54:51.836Z,5.15
2018-03-03T17:57:32.320Z,5.25
2018-03-03T18:00:13.117Z,5.60
2018-03-03T18:02:53.818Z,5.50
2018-03-03T18:05:34.327Z,5.20
2018-03-03T18:08:15.451Z,5.18
2018-03-03T18:10:56.144Z,5.62
2018-03-03T18:13:36.655Z,5.93
2018-03-03T18:16:17.993Z,6.05
2018-03-03T18:19:01.214Z,5.57
2018-03-03T18:21:41.900Z,5.90
2018-03-03T18:24:37.390Z,6.57
2018-03-03T18:27:19.650Z,6.22
2018-03-03T18:30:00.352Z,5.25
2018-03-03T18:32:41.009Z,5.62
2018-03-03T18:35:22.792Z,5.87
2018-03-03T18:38:03.467Z,6.00
2018-03-03T18:40:44.130Z,6.20
2018-03-03T18:43:24.792Z,6.82
2018-03-03T18:46:05.573Z,6.15
2018-03-03T18:48:46.348Z,6.40
2018-03-03T18:51:26.863Z,5.72
2018-03-03T18:54:07.663Z,6.10
2018-03-03T18:56:48.588Z,6.67
2018-03-03T18:59:29.237Z,6.50
2018-03-03T19:02:11.041Z,6.60
2018-03-03T19:04:51.812Z,7.77
2018-03-03T19:07:32.630Z,6.53
2018-03-03T19:10:13.185Z,7.30
2018-03-03T19:12:54.211Z,7.37
2018-03-03T19:15:35.060Z,6.93
2018-03-03T19:18:16.421Z,6.77
2018-03-03T19:20:57.085Z,6.93
2018-03-03T19:23:39.232Z,7.13
2018-03-03T19:26:19.980Z,7.40
2018-03-03T19:29:00.697Z,7.60
2018-03-03T19:31:42.053Z,6.95
2018-03-03T19:34:23.401Z,7.40
2018-03-03T19:37:05.482Z,6.95
2018-03-03T19:39:47.222Z,7.82
2018-03-03T19:42:28.726Z,7.77
2018-03-03T19:45:09.459Z,7.95
2018-03-03T19:47:49.944Z,7.12
2018-03-03T19:50:30.520Z,7.95
2018-03-03T19:53:11.242Z,8.00
2018-03-03T19:55:51.716Z,8.23
2018-03-03T19:58:32.602Z,7.47
2018-03-03T20:01:13.969Z,8.33
2018-03-03T20:03:54.680Z,7.53
2018-03-03T20:06:36.251Z,7.80
2018-03-03T20:09:19.249Z,8.00
2018-03-03T20:12:01.336Z,7.73
2018-03-03T20:14:42.291Z,8.20
2018-03-03T20:17:22.893Z,8.27
2018-03-03T20:20:03.645Z,8.13
2018-03-03T20:22:44.502Z,7.80
2018-03-03T20:25:25.110Z,8.23
2018-03-03T20:28:06.447Z,7.97
2018-03-03T20:30:47.637Z,9.05
2018-03-03T20:33:28.035Z,8.53
2018-03-03T20:36:08.775Z,8.43
2018-03-03T20:38:50.505Z,8.55
2018-03-03T20:41:31.253Z,7.87
2018-03-03T20:44:13.581Z,8.65
2018-03-03T20:46:54.390Z,7.87
2018-03-03T20:49:34.997Z,8.10
2018-03-03T20:52:15.645Z,8.13
2018-03-03T20:54:56.221Z,8.27
2018-03-03T20:57:37.883Z,8.32
2018-03-03T21:00:18.713Z,7.60
2018-03-03T21:02:59.176Z,8.43
2018-03-03T21:05:39.836Z,7.70
2018-03-03T21:08:20.352Z,7.93
2018-03-03T21:11:01.270Z,7.43
2018-03-03T21:13:44.475Z,8.40
2018-03-03T21:16:24.997Z,7.53
2018-03-03T21:19:05.684Z,8.20
2018-03-03T21:21:47.367Z,8.17
2018-03-03T21:24:29.984Z,7.57
2018-03-03T21:27:10.689Z,7.57
2018-03-03T21:29:52.621Z,7.60
2018-03-03T21:32:33.420Z,7.80
2018-03-03T21:35:13.863Z,7.75
2018-03-03T21:37:54.732Z,7.32
2018-03-03T21:40:35.463Z,7.87
2018-03-03T21:43:16.031Z,8.07
2018-03-03T21:45:56.709Z,7.23
2018-03-03T21:48:37.300Z,7.65
2018-03-03T21:51:17.878Z,7.50
2018-03-03T21:53:58.394Z,8.10
2018-03-03T21:56:39.129Z,7.32
2018-03-03T21:59:19.936Z,7.10
2018-03-03T22:02:03.468Z,7.60
2018-03-03T22:04:44.158Z,7.30
2018-03-03T22:07:25.640Z,7.53
2018-03-03T22:10:06.435Z,7.10
2018-03-03T22:12:47.023Z,6.70
2018-03-03T22:15:27.876Z,7.43
2018-03-03T22:18:08.437Z,6.67
2018-03-03T22:20:49.211Z,6.60
2018-03-03T22:23:29.945Z,6.90
2018-03-03T22:26:10.817Z,7.33
2018-03-03T22:28:51.458Z,6.80
2018-03-03T22:31:32.276Z,6.87
2018-03-03T22:34:13.810Z,6.80
2018-03-03T22:36:54.327Z,7.03
2018-03-03T22:39:34.721Z,6.83
2018-03-03T22:42:15.794Z,6.40
2018-03-03T22:44:56.436Z,6.90
2018-03-03T22:47:37.196Z,6.70
2018-03-03T22:50:18.741Z,6.53
2018-03-03T22:53:00.126Z,7.47
2018-03-03T22:55:40.591Z,7.20
2018-03-03T22:58:22.124Z,6.83
2018-03-03T23:01:04.424Z,7.50
2018-03-03T23:03:45.583Z,7.27
2018-03-03T23:06:26.176Z,7.23
2018-03-03T23:09:28.037Z,6.93
2018-03-03T23:12:19.857Z,7.70
2018-03-03T23:15:19.476Z,6.63
2018-03-03T23:18:08.551Z,7.23
2018-03-03T23:20:58.858Z,7.83
2018-03-03T23:23:50.757Z,7.10
2018-03-03T23:26:41.961Z,8.30
2018-03-03T23:29:28.270Z,7.40
2018-03-03T23:32:20.295Z,7.43
2018-03-03T23:35:01.817Z,7.00
2018-03-03T23:37:44.220Z,7.33
2018-03-03T23:40:27.064Z,7.60
2018-03-03T23:46:16.616Z,7.80
2018-03-03T23:49:01.898Z,7.87
2018-03-03T23:51:50.333Z,7.60
2018-03-03T23:54:33.394Z,8.60
2018-03-03T23:57:16.067Z,8.27
2018-03-03T23:59:56.792Z,8.17
